sensor_id;sensor_type;location;lat;lon;timestamp;P1;durP1;ratioP1;P2;durP2;ratioP2
14849;SDS011;7517;48.400;11.770;2024-03-07T00:00:02;17.00;;;11.53;;
14849;SDS011;7517;48.400;11.770;2024-03-07T00:02:39;15.60;;;11.13;;
14849;SDS011;7517;48.400;11.770;2024-03-07T00:05:07;15.30;;;11.27;;
14849;SDS011;7517;48.400;11.770;2024-03-07T00:07:36;18.70;;;12.23;;
14849;SDS011;7517;48.400;11.770;2024-03-07T00:10:04;17.30;;;12.30;;
14849;SDS011;7517;48.400;11.770;2024-03-07T00:12:33;15.87;;;11.10;;
14849;SDS011;7517;48.400;11.770;2024-03-07T00:15:01;18.03;;;12.20;;
14849;SDS011;7517;48.400;11.770;2024-03-07T00:17:29;17.63;;;11.77;;
14849;SDS011;7517;48.400;11.770;2024-03-07T00:19:59;16.73;;;11.73;;
14849;SDS011;7517;48.400;11.770;2024-03-07T00:22:29;18.87;;;12.17;;
14849;SDS011;7517;48.400;11.770;2024-03-07T00:24:58;19.87;;;12.93;;
14849;SDS011;7517;48.400;11.770;2024-03-07T00:27:25;15.90;;;11.27;;
14849;SDS011;7517;48.400;11.770;2024-03-07T00:29:52;16.47;;;12.30;;
14849;SDS011;7517;48.400;11.770;2024-03-07T00:32:19;17.50;;;12.37;;
14849;SDS011;7517;48.400;11.770;2024-03-07T00:34:47;16.57;;;11.60;;
14849;SDS011;7517;48.400;11.770;2024-03-07T00:37:15;18.27;;;12.13;;
14849;SDS011;7517;48.400;11.770;2024-03-07T00:39:42;18.97;;;13.00;;
14849;SDS011;7517;48.400;11.770;2024-03-07T00:42:12;18.63;;;12.30;;
14849;SDS011;7517;48.400;11.770;2024-03-07T00:44:39;19.37;;;13.27;;
14849;SDS011;7517;48.400;11.770;2024-03-07T00:47:06;16.93;;;12.23;;
14849;SDS011;7517;48.400;11.770;2024-03-07T00:49:34;18.40;;;13.07;;
14849;SDS011;7517;48.400;11.770;2024-03-07T00:52:01;16.73;;;12.63;;
14849;SDS011;7517;48.400;11.770;2024-03-07T00:54:29;17.87;;;12.60;;
14849;SDS011;7517;48.400;11.770;2024-03-07T00:56:56;16.83;;;13.03;;
14849;SDS011;7517;48.400;11.770;2024-03-07T00:59:26;17.63;;;12.93;;
14849;SDS011;7517;48.400;11.770;2024-03-07T01:01:53;19.77;;;12.23;;
14849;SDS011;7517;48.400;11.770;2024-03-07T01:04:23;16.17;;;12.97;;
14849;SDS011;7517;48.400;11.770;2024-03-07T01:06:55;18.43;;;13.20;;
14849;SDS011;7517;48.400;11.770;2024-03-07T01:09:23;18.60;;;14.03;;
14849;SDS011;7517;48.400;11.770;2024-03-07T01:11:50;16.23;;;12.60;;
14849;SDS011;7517;48.400;11.770;2024-03-07T01:14:17;18.37;;;13.07;;
14849;SDS011;7517;48.400;11.770;2024-03-07T01:16:47;20.23;;;14.10;;
14849;SDS011;7517;48.400;11.770;2024-03-07T01:19:14;18.43;;;12.73;;
14849;SDS011;7517;48.400;11.770;2024-03-07T01:21:42;19.57;;;14.47;;
14849;SDS011;7517;48.400;11.770;2024-03-07T01:24:09;18.87;;;13.53;;
14849;SDS011;7517;48.400;11.770;2024-03-07T01:26:36;21.83;;;14.80;;
14849;SDS011;7517;48.400;11.770;2024-03-07T01:29:04;17.00;;;13.60;;
14849;SDS011;7517;48.400;11.770;2024-03-07T01:31:32;18.87;;;13.70;;
14849;SDS011;7517;48.400;11.770;2024-03-07T01:34:01;18.07;;;13.60;;
14849;SDS011;7517;48.400;11.770;2024-03-07T01:36:28;21.20;;;14.67;;
14849;SDS011;7517;48.400;11.770;2024-03-07T01:38:56;21.60;;;14.40;;
14849;SDS011;7517;48.400;11.770;2024-03-07T01:41:23;21.60;;;14.27;;
14849;SDS011;7517;48.400;11.770;2024-03-07T01:43:50;19.80;;;13.83;;
14849;SDS011;7517;48.400;11.770;2024-03-07T01:46:17;19.97;;;14.00;;
14849;SDS011;7517;48.400;11.770;2024-03-07T01:48:45;18.40;;;13.70;;
14849;SDS011;7517;48.400;11.770;2024-03-07T01:51:14;22.50;;;13.83;;
14849;SDS011;7517;48.400;11.770;2024-03-07T01:53:42;18.90;;;13.77;;
14849;SDS011;7517;48.400;11.770;2024-03-07T01:56:10;20.40;;;14.20;;
14849;SDS011;7517;48.400;11.770;2024-03-07T01:58:38;23.10;;;15.00;;
14849;SDS011;7517;48.400;11.770;2024-03-07T02:01:07;18.60;;;13.50;;
14849;SDS011;7517;48.400;11.770;2024-03-07T02:03:35;18.67;;;13.70;;
14849;SDS011;7517;48.400;11.770;2024-03-07T02:06:03;20.17;;;14.57;;
14849;SDS011;7517;48.400;11.770;2024-03-07T02:08:32;19.43;;;13.87;;
14849;SDS011;7517;48.400;11.770;2024-03-07T02:10:59;20.17;;;14.50;;
14849;SDS011;7517;48.400;11.770;2024-03-07T02:13:27;19.13;;;13.47;;
14849;SDS011;7517;48.400;11.770;2024-03-07T02:15:54;21.57;;;14.73;;
14849;SDS011;7517;48.400;11.770;2024-03-07T02:18:22;18.00;;;13.60;;
14849;SDS011;7517;48.400;11.770;2024-03-07T02:20:51;22.33;;;15.27;;
14849;SDS011;7517;48.400;11.770;2024-03-07T02:23:19;21.33;;;14.67;;
14849;SDS011;7517;48.400;11.770;2024-03-07T02:25:47;20.00;;;13.70;;
14849;SDS011;7517;48.400;11.770;2024-03-07T02:28:14;21.23;;;14.57;;
14849;SDS011;7517;48.400;11.770;2024-03-07T02:30:42;22.97;;;14.63;;
14849;SDS011;7517;48.400;11.770;2024-03-07T02:33:10;20.77;;;14.03;;
14849;SDS011;7517;48.400;11.770;2024-03-07T02:35:38;20.97;;;14.47;;
14849;SDS011;7517;48.400;11.770;2024-03-07T02:38:06;20.13;;;14.70;;
14849;SDS011;7517;48.400;11.770;2024-03-07T02:40:35;24.10;;;15.77;;
14849;SDS011;7517;48.400;11.770;2024-03-07T02:43:02;21.93;;;14.87;;
14849;SDS011;7517;48.400;11.770;2024-03-07T02:45:30;22.47;;;14.50;;
14849;SDS011;7517;48.400;11.770;2024-03-07T02:47:57;22.27;;;15.30;;
14849;SDS011;7517;48.400;11.770;2024-03-07T02:50:24;20.63;;;14.37;;
14849;SDS011;7517;48.400;11.770;2024-03-07T02:52:52;23.23;;;15.77;;
14849;SDS011;7517;48.400;11.770;2024-03-07T02:55:21;20.40;;;14.70;;
14849;SDS011;7517;48.400;11.770;2024-03-07T02:57:48;22.10;;;15.13;;
14849;SDS011;7517;48.400;11.770;2024-03-07T03:00:15;21.87;;;14.87;;
14849;SDS011;7517;48.400;11.770;2024-03-07T03:02:46;24.40;;;15.30;;
14849;SDS011;7517;48.400;11.770;2024-03-07T03:05:14;24.50;;;16.10;;
14849;SDS011;7517;48.400;11.770;2024-03-07T03:07:43;22.83;;;15.13;;
14849;SDS011;7517;48.400;11.770;2024-03-07T03:10:17;21.27;;;15.17;;
14849;SDS011;7517;48.400;11.770;2024-03-07T03:12:51;20.47;;;15.00;;
14849;SDS011;7517;48.400;11.770;2024-03-07T03:15:19;22.40;;;15.83;;
14849;SDS011;7517;48.400;11.770;2024-03-07T03:17:49;22.60;;;16.20;;
14849;SDS011;7517;48.400;11.770;2024-03-07T03:20:17;22.47;;;15.77;;
14849;SDS011;7517;48.400;11.770;2024-03-07T03:22:58;23.53;;;15.90;;
14849;SDS011;7517;48.400;11.770;2024-03-07T03:25:29;21.60;;;15.80;;
14849;SDS011;7517;48.400;11.770;2024-03-07T03:27:58;20.63;;;14.23;;
14849;SDS011;7517;48.400;11.770;2024-03-07T03:30:25;23.43;;;16.20;;
14849;SDS011;7517;48.400;11.770;2024-03-07T03:32:52;23.77;;;16.17;;
14849;SDS011;7517;48.400;11.770;2024-03-07T03:35:21;23.60;;;16.23;;
14849;SDS011;7517;48.400;11.770;2024-03-07T03:37:49;27.40;;;17.07;;
14849;SDS011;7517;48.400;11.770;2024-03-07T03:40:16;25.10;;;16.80;;
14849;SDS011;7517;48.400;11.770;2024-03-07T03:42:45;23.57;;;15.87;;
14849;SDS011;7517;48.400;11.770;2024-03-07T03:45:17;23.80;;;16.40;;
14849;SDS011;7517;48.400;11.770;2024-03-07T03:47:44;23.83;;;16.33;;
14849;SDS011;7517;48.400;11.770;2024-03-07T03:50:15;26.17;;;16.70;;
14849;SDS011;7517;48.400;11.770;2024-03-07T03:52:42;27.70;;;18.47;;
14849;SDS011;7517;48.400;11.770;2024-03-07T03:55:10;24.23;;;16.93;;
14849;SDS011;7517;48.400;11.770;2024-03-07T03:57:38;30.93;;;18.53;;
14849;SDS011;7517;48.400;11.770;2024-03-07T04:00:10;26.70;;;17.60;;
14849;SDS011;7517;48.400;11.770;2024-03-07T04:02:39;25.03;;;17.07;;
14849;SDS011;7517;48.400;11.770;2024-03-07T04:05:08;26.17;;;17.07;;
14849;SDS011;7517;48.400;11.770;2024-03-07T04:07:38;24.90;;;16.93;;
14849;SDS011;7517;48.400;11.770;2024-03-07T04:10:07;26.40;;;17.73;;
14849;SDS011;7517;48.400;11.770;2024-03-07T04:12:36;25.77;;;17.17;;
14849;SDS011;7517;48.400;11.770;2024-03-07T04:15:05;25.33;;;17.63;;
14849;SDS011;7517;48.400;11.770;2024-03-07T04:17:37;23.63;;;16.10;;
14849;SDS011;7517;48.400;11.770;2024-03-07T04:20:05;25.00;;;15.97;;
14849;SDS011;7517;48.400;11.770;2024-03-07T04:22:35;26.87;;;18.23;;
14849;SDS011;7517;48.400;11.770;2024-03-07T04:25:05;25.33;;;16.93;;
14849;SDS011;7517;48.400;11.770;2024-03-07T04:27:36;27.80;;;17.90;;
14849;SDS011;7517;48.400;11.770;2024-03-07T04:30:06;24.67;;;16.63;;
14849;SDS011;7517;48.400;11.770;2024-03-07T04:32:37;24.30;;;16.20;;
14849;SDS011;7517;48.400;11.770;2024-03-07T04:35:07;28.30;;;17.63;;
14849;SDS011;7517;48.400;11.770;2024-03-07T04:37:35;25.37;;;17.07;;
14849;SDS011;7517;48.400;11.770;2024-03-07T04:40:03;24.67;;;17.33;;
14849;SDS011;7517;48.400;11.770;2024-03-07T04:42:40;25.97;;;17.17;;
14849;SDS011;7517;48.400;11.770;2024-03-07T04:45:10;27.30;;;18.30;;
14849;SDS011;7517;48.400;11.770;2024-03-07T04:47:39;24.03;;;16.47;;
14849;SDS011;7517;48.400;11.770;2024-03-07T04:50:07;27.53;;;17.17;;
14849;SDS011;7517;48.400;11.770;2024-03-07T04:52:36;24.47;;;17.03;;
14849;SDS011;7517;48.400;11.770;2024-03-07T04:55:04;24.30;;;16.23;;
14849;SDS011;7517;48.400;11.770;2024-03-07T04:57:35;25.73;;;17.80;;
14849;SDS011;7517;48.400;11.770;2024-03-07T05:00:04;25.60;;;17.53;;
14849;SDS011;7517;48.400;11.770;2024-03-07T05:02:40;24.50;;;15.87;;
14849;SDS011;7517;48.400;11.770;2024-03-07T05:05:07;23.93;;;16.13;;
14849;SDS011;7517;48.400;11.770;2024-03-07T05:07:35;25.27;;;16.33;;
14849;SDS011;7517;48.400;11.770;2024-03-07T05:10:03;24.60;;;17.07;;
14849;SDS011;7517;48.400;11.770;2024-03-07T05:12:33;23.83;;;16.60;;
14849;SDS011;7517;48.400;11.770;2024-03-07T05:15:02;27.43;;;17.13;;
14849;SDS011;7517;48.400;11.770;2024-03-07T05:17:32;24.50;;;16.47;;
14849;SDS011;7517;48.400;11.770;2024-03-07T05:20:03;23.27;;;16.40;;
14849;SDS011;7517;48.400;11.770;2024-03-07T05:22:35;30.93;;;17.07;;
14849;SDS011;7517;48.400;11.770;2024-03-07T05:25:04;24.93;;;16.40;;
14849;SDS011;7517;48.400;11.770;2024-03-07T05:27:33;26.97;;;17.83;;
14849;SDS011;7517;48.400;11.770;2024-03-07T05:30:01;21.63;;;14.77;;
14849;SDS011;7517;48.400;11.770;2024-03-07T05:32:30;21.63;;;15.57;;
14849;SDS011;7517;48.400;11.770;2024-03-07T05:34:59;26.13;;;17.03;;
14849;SDS011;7517;48.400;11.770;2024-03-07T05:37:28;25.30;;;17.00;;
14849;SDS011;7517;48.400;11.770;2024-03-07T05:39:57;25.63;;;15.97;;
14849;SDS011;7517;48.400;11.770;2024-03-07T05:42:24;24.47;;;16.87;;
14849;SDS011;7517;48.400;11.770;2024-03-07T05:44:55;26.13;;;17.03;;
14849;SDS011;7517;48.400;11.770;2024-03-07T05:47:22;24.33;;;16.03;;
14849;SDS011;7517;48.400;11.770;2024-03-07T05:49:49;27.27;;;17.13;;
14849;SDS011;7517;48.400;11.770;2024-03-07T05:52:18;24.47;;;16.10;;
14849;SDS011;7517;48.400;11.770;2024-03-07T05:54:47;24.07;;;16.53;;
14849;SDS011;7517;48.400;11.770;2024-03-07T05:57:14;28.47;;;16.70;;
14849;SDS011;7517;48.400;11.770;2024-03-07T05:59:41;26.87;;;16.87;;
14849;SDS011;7517;48.400;11.770;2024-03-07T06:02:12;26.50;;;17.10;;
14849;SDS011;7517;48.400;11.770;2024-03-07T06:04:40;25.80;;;16.97;;
14849;SDS011;7517;48.400;11.770;2024-03-07T06:07:08;26.67;;;17.13;;
14849;SDS011;7517;48.400;11.770;2024-03-07T06:09:36;23.30;;;16.27;;
14849;SDS011;7517;48.400;11.770;2024-03-07T06:12:06;24.33;;;16.63;;
14849;SDS011;7517;48.400;11.770;2024-03-07T06:14:34;24.00;;;15.50;;
14849;SDS011;7517;48.400;11.770;2024-03-07T06:17:01;25.60;;;17.00;;
14849;SDS011;7517;48.400;11.770;2024-03-07T06:19:29;24.57;;;17.00;;
14849;SDS011;7517;48.400;11.770;2024-03-07T06:21:56;26.50;;;17.87;;
14849;SDS011;7517;48.400;11.770;2024-03-07T06:24:23;25.83;;;17.63;;
14849;SDS011;7517;48.400;11.770;2024-03-07T06:26:55;24.33;;;16.00;;
14849;SDS011;7517;48.400;11.770;2024-03-07T06:29:32;25.60;;;16.30;;
14849;SDS011;7517;48.400;11.770;2024-03-07T06:32:01;25.53;;;16.80;;
14849;SDS011;7517;48.400;11.770;2024-03-07T06:34:29;27.63;;;17.67;;
14849;SDS011;7517;48.400;11.770;2024-03-07T06:36:56;25.50;;;17.17;;
14849;SDS011;7517;48.400;11.770;2024-03-07T06:39:24;25.57;;;17.00;;
14849;SDS011;7517;48.400;11.770;2024-03-07T06:41:52;25.93;;;17.83;;
14849;SDS011;7517;48.400;11.770;2024-03-07T06:44:19;27.70;;;16.80;;
14849;SDS011;7517;48.400;11.770;2024-03-07T06:46:50;23.60;;;16.23;;
14849;SDS011;7517;48.400;11.770;2024-03-07T06:49:17;28.17;;;18.30;;
14849;SDS011;7517;48.400;11.770;2024-03-07T06:51:46;24.70;;;16.07;;
14849;SDS011;7517;48.400;11.770;2024-03-07T06:54:13;25.37;;;16.90;;
14849;SDS011;7517;48.400;11.770;2024-03-07T06:56:41;28.23;;;17.27;;
14849;SDS011;7517;48.400;11.770;2024-03-07T06:59:09;24.57;;;16.93;;
14849;SDS011;7517;48.400;11.770;2024-03-07T07:01:38;23.20;;;15.80;;
14849;SDS011;7517;48.400;11.770;2024-03-07T07:04:09;25.63;;;16.83;;
14849;SDS011;7517;48.400;11.770;2024-03-07T07:06:38;28.00;;;17.23;;
14849;SDS011;7517;48.400;11.770;2024-03-07T07:09:08;24.73;;;17.03;;
14849;SDS011;7517;48.400;11.770;2024-03-07T07:11:35;28.23;;;17.83;;
14849;SDS011;7517;48.400;11.770;2024-03-07T07:14:03;25.60;;;18.00;;
14849;SDS011;7517;48.400;11.770;2024-03-07T07:16:33;26.40;;;17.53;;
14849;SDS011;7517;48.400;11.770;2024-03-07T07:19:01;27.77;;;17.37;;
14849;SDS011;7517;48.400;11.770;2024-03-07T07:21:34;27.67;;;16.93;;
14849;SDS011;7517;48.400;11.770;2024-03-07T07:24:02;23.47;;;16.20;;
14849;SDS011;7517;48.400;11.770;2024-03-07T07:26:30;35.60;;;20.33;;
14849;SDS011;7517;48.400;11.770;2024-03-07T07:28:58;27.33;;;17.83;;
14849;SDS011;7517;48.400;11.770;2024-03-07T07:31:29;26.53;;;16.87;;
14849;SDS011;7517;48.400;11.770;2024-03-07T07:33:57;25.00;;;17.13;;
14849;SDS011;7517;48.400;11.770;2024-03-07T07:36:25;25.57;;;17.13;;
14849;SDS011;7517;48.400;11.770;2024-03-07T07:38:55;24.43;;;16.67;;
14849;SDS011;7517;48.400;11.770;2024-03-07T07:41:25;21.83;;;16.20;;
14849;SDS011;7517;48.400;11.770;2024-03-07T07:43:53;25.00;;;16.67;;
14849;SDS011;7517;48.400;11.770;2024-03-07T07:46:21;25.00;;;16.83;;
14849;SDS011;7517;48.400;11.770;2024-03-07T07:48:49;24.27;;;16.57;;
14849;SDS011;7517;48.400;11.770;2024-03-07T07:51:16;24.17;;;16.27;;
14849;SDS011;7517;48.400;11.770;2024-03-07T07:53:43;28.70;;;17.67;;
14849;SDS011;7517;48.400;11.770;2024-03-07T07:56:12;28.13;;;17.53;;
14849;SDS011;7517;48.400;11.770;2024-03-07T07:58:40;27.80;;;17.83;;
14849;SDS011;7517;48.400;11.770;2024-03-07T08:01:07;25.13;;;16.93;;
14849;SDS011;7517;48.400;11.770;2024-03-07T08:03:35;25.27;;;17.63;;
14849;SDS011;7517;48.400;11.770;2024-03-07T08:06:03;26.40;;;17.73;;
14849;SDS011;7517;48.400;11.770;2024-03-07T08:08:31;23.73;;;16.27;;
14849;SDS011;7517;48.400;11.770;2024-03-07T08:10:59;22.77;;;16.50;;
14849;SDS011;7517;48.400;11.770;2024-03-07T08:13:28;23.57;;;16.53;;
14849;SDS011;7517;48.400;11.770;2024-03-07T08:15:55;23.00;;;15.63;;
14849;SDS011;7517;48.400;11.770;2024-03-07T08:18:23;24.77;;;16.50;;
14849;SDS011;7517;48.400;11.770;2024-03-07T08:20:50;22.70;;;16.00;;
14849;SDS011;7517;48.400;11.770;2024-03-07T08:23:17;26.23;;;16.73;;
14849;SDS011;7517;48.400;11.770;2024-03-07T08:25:45;21.33;;;15.47;;
14849;SDS011;7517;48.400;11.770;2024-03-07T08:28:13;22.47;;;16.33;;
14849;SDS011;7517;48.400;11.770;2024-03-07T08:30:43;20.37;;;14.23;;
14849;SDS011;7517;48.400;11.770;2024-03-07T08:33:11;23.07;;;14.70;;
14849;SDS011;7517;48.400;11.770;2024-03-07T08:35:39;19.67;;;13.90;;
14849;SDS011;7517;48.400;11.770;2024-03-07T08:38:06;22.97;;;13.77;;
14849;SDS011;7517;48.400;11.770;2024-03-07T08:40:36;20.03;;;14.40;;
14849;SDS011;7517;48.400;11.770;2024-03-07T08:43:03;22.70;;;15.87;;
14849;SDS011;7517;48.400;11.770;2024-03-07T08:45:32;22.87;;;15.33;;
14849;SDS011;7517;48.400;11.770;2024-03-07T08:48:02;21.00;;;14.93;;
14849;SDS011;7517;48.400;11.770;2024-03-07T08:50:32;19.57;;;14.40;;
14849;SDS011;7517;48.400;11.770;2024-03-07T08:53:00;21.13;;;14.87;;
14849;SDS011;7517;48.400;11.770;2024-03-07T08:55:29;21.07;;;15.33;;
14849;SDS011;7517;48.400;11.770;2024-03-07T08:57:56;20.40;;;14.20;;
14849;SDS011;7517;48.400;11.770;2024-03-07T09:00:24;24.27;;;16.33;;
14849;SDS011;7517;48.400;11.770;2024-03-07T09:02:52;21.53;;;15.30;;
14849;SDS011;7517;48.400;11.770;2024-03-07T09:05:24;21.53;;;15.23;;
14849;SDS011;7517;48.400;11.770;2024-03-07T09:07:53;21.37;;;14.43;;
14849;SDS011;7517;48.400;11.770;2024-03-07T09:10:21;19.77;;;14.43;;
14849;SDS011;7517;48.400;11.770;2024-03-07T09:12:51;21.47;;;15.37;;
14849;SDS011;7517;48.400;11.770;2024-03-07T09:15:19;18.60;;;14.03;;
14849;SDS011;7517;48.400;11.770;2024-03-07T09:17:47;21.37;;;14.87;;
14849;SDS011;7517;48.400;11.770;2024-03-07T09:20:15;20.77;;;14.30;;
14849;SDS011;7517;48.400;11.770;2024-03-07T09:22:45;20.90;;;14.73;;
14849;SDS011;7517;48.400;11.770;2024-03-07T09:25:13;21.10;;;14.27;;
14849;SDS011;7517;48.400;11.770;2024-03-07T09:27:44;19.90;;;13.97;;
14849;SDS011;7517;48.400;11.770;2024-03-07T09:30:11;20.77;;;15.00;;
14849;SDS011;7517;48.400;11.770;2024-03-07T09:32:44;21.73;;;14.33;;
14849;SDS011;7517;48.400;11.770;2024-03-07T09:35:11;20.43;;;15.33;;
14849;SDS011;7517;48.400;11.770;2024-03-07T09:37:39;20.67;;;14.67;;
14849;SDS011;7517;48.400;11.770;2024-03-07T09:40:10;18.10;;;13.67;;
14849;SDS011;7517;48.400;11.770;2024-03-07T09:42:41;19.47;;;14.37;;
14849;SDS011;7517;48.400;11.770;2024-03-07T09:45:16;18.43;;;13.60;;
14849;SDS011;7517;48.400;11.770;2024-03-07T09:47:46;19.57;;;13.63;;
14849;SDS011;7517;48.400;11.770;2024-03-07T09:50:16;19.67;;;13.37;;
14849;SDS011;7517;48.400;11.770;2024-03-07T09:52:46;19.67;;;13.70;;
14849;SDS011;7517;48.400;11.770;2024-03-07T09:55:18;18.20;;;13.10;;
14849;SDS011;7517;48.400;11.770;2024-03-07T09:57:46;20.83;;;14.83;;
14849;SDS011;7517;48.400;11.770;2024-03-07T10:00:17;18.63;;;13.23;;
14849;SDS011;7517;48.400;11.770;2024-03-07T10:02:53;19.37;;;14.03;;
14849;SDS011;7517;48.400;11.770;2024-03-07T10:05:23;22.43;;;14.17;;
14849;SDS011;7517;48.400;11.770;2024-03-07T10:07:55;19.93;;;14.10;;
14849;SDS011;7517;48.400;11.770;2024-03-07T10:10:25;20.20;;;13.83;;
14849;SDS011;7517;48.400;11.770;2024-03-07T10:12:55;18.87;;;12.97;;
14849;SDS011;7517;48.400;11.770;2024-03-07T10:15:26;17.57;;;13.30;;
14849;SDS011;7517;48.400;11.770;2024-03-07T10:17:55;17.30;;;13.67;;
14849;SDS011;7517;48.400;11.770;2024-03-07T10:20:23;17.80;;;13.30;;
14849;SDS011;7517;48.400;11.770;2024-03-07T10:22:51;19.87;;;14.03;;
14849;SDS011;7517;48.400;11.770;2024-03-07T10:25:19;20.50;;;13.53;;
14849;SDS011;7517;48.400;11.770;2024-03-07T10:27:51;17.67;;;13.27;;
14849;SDS011;7517;48.400;11.770;2024-03-07T10:30:19;17.83;;;12.77;;
14849;SDS011;7517;48.400;11.770;2024-03-07T10:32:47;19.27;;;13.23;;
14849;SDS011;7517;48.400;11.770;2024-03-07T10:35:19;17.23;;;12.60;;
14849;SDS011;7517;48.400;11.770;2024-03-07T10:37:49;18.57;;;13.63;;
14849;SDS011;7517;48.400;11.770;2024-03-07T10:40:16;19.93;;;13.23;;
14849;SDS011;7517;48.400;11.770;2024-03-07T10:42:45;18.10;;;13.57;;
14849;SDS011;7517;48.400;11.770;2024-03-07T10:45:18;19.43;;;13.50;;
14849;SDS011;7517;48.400;11.770;2024-03-07T10:47:50;19.27;;;13.60;;
14849;SDS011;7517;48.400;11.770;2024-03-07T10:50:24;18.30;;;13.27;;
14849;SDS011;7517;48.400;11.770;2024-03-07T10:53:15;18.60;;;13.17;;
14849;SDS011;7517;48.400;11.770;2024-03-07T10:55:59;20.10;;;13.67;;
14849;SDS011;7517;48.400;11.770;2024-03-07T10:58:47;20.93;;;13.97;;
14849;SDS011;7517;48.400;11.770;2024-03-07T11:01:30;19.50;;;13.70;;
14849;SDS011;7517;48.400;11.770;2024-03-07T11:03:59;17.83;;;12.70;;
14849;SDS011;7517;48.400;11.770;2024-03-07T11:06:30;21.37;;;13.90;;
14849;SDS011;7517;48.400;11.770;2024-03-07T11:09:00;18.27;;;12.83;;
14849;SDS011;7517;48.400;11.770;2024-03-07T11:11:35;18.50;;;13.30;;
14849;SDS011;7517;48.400;11.770;2024-03-07T11:14:05;17.80;;;13.60;;
14849;SDS011;7517;48.400;11.770;2024-03-07T11:16:37;18.67;;;12.37;;
14849;SDS011;7517;48.400;11.770;2024-03-07T11:19:19;18.13;;;12.77;;
14849;SDS011;7517;48.400;11.770;2024-03-07T11:21:55;17.70;;;12.53;;
14849;SDS011;7517;48.400;11.770;2024-03-07T11:24:24;18.50;;;12.77;;
14849;SDS011;7517;48.400;11.770;2024-03-07T11:26:53;16.47;;;12.17;;
14849;SDS011;7517;48.400;11.770;2024-03-07T11:29:42;16.00;;;12.07;;
14849;SDS011;7517;48.400;11.770;2024-03-07T11:32:19;17.20;;;12.47;;
14849;SDS011;7517;48.400;11.770;2024-03-07T11:34:47;16.73;;;12.33;;
14849;SDS011;7517;48.400;11.770;2024-03-07T11:37:19;16.77;;;11.97;;
14849;SDS011;7517;48.400;11.770;2024-03-07T11:40:06;17.77;;;12.30;;
14849;SDS011;7517;48.400;11.770;2024-03-07T11:42:43;19.43;;;12.17;;
14849;SDS011;7517;48.400;11.770;2024-03-07T11:45:13;16.60;;;12.23;;
14849;SDS011;7517;48.400;11.770;2024-03-07T11:47:51;18.17;;;12.23;;
14849;SDS011;7517;48.400;11.770;2024-03-07T11:50:25;17.53;;;11.73;;
14849;SDS011;7517;48.400;11.770;2024-03-07T11:52:53;15.00;;;11.57;;
14849;SDS011;7517;48.400;11.770;2024-03-07T11:55:21;15.60;;;11.50;;
14849;SDS011;7517;48.400;11.770;2024-03-07T11:57:49;15.07;;;11.37;;
14849;SDS011;7517;48.400;11.770;2024-03-07T12:00:17;13.23;;;10.97;;
14849;SDS011;7517;48.400;11.770;2024-03-07T12:02:46;14.47;;;10.33;;
14849;SDS011;7517;48.400;11.770;2024-03-07T12:05:15;15.63;;;10.90;;
14849;SDS011;7517;48.400;11.770;2024-03-07T12:07:44;14.27;;;10.50;;
14849;SDS011;7517;48.400;11.770;2024-03-07T12:10:14;14.17;;;10.07;;
14849;SDS011;7517;48.400;11.770;2024-03-07T12:12:49;13.60;;;10.57;;
14849;SDS011;7517;48.400;11.770;2024-03-07T12:15:18;14.33;;;10.60;;
14849;SDS011;7517;48.400;11.770;2024-03-07T12:17:46;14.83;;;10.70;;
14849;SDS011;7517;48.400;11.770;2024-03-07T12:20:16;14.27;;;10.30;;
14849;SDS011;7517;48.400;11.770;2024-03-07T12:22:56;16.87;;;11.20;;
14849;SDS011;7517;48.400;11.770;2024-03-07T12:25:26;16.47;;;11.50;;
14849;SDS011;7517;48.400;11.770;2024-03-07T12:28:03;14.70;;;9.93;;
14849;SDS011;7517;48.400;11.770;2024-03-07T12:30:36;14.17;;;10.07;;
14849;SDS011;7517;48.400;11.770;2024-03-07T12:33:16;15.70;;;11.03;;
14849;SDS011;7517;48.400;11.770;2024-03-07T12:35:47;13.90;;;10.43;;
14849;SDS011;7517;48.400;11.770;2024-03-07T12:38:17;16.20;;;10.83;;
14849;SDS011;7517;48.400;11.770;2024-03-07T12:40:46;14.13;;;10.10;;
14849;SDS011;7517;48.400;11.770;2024-03-07T12:43:17;13.97;;;11.00;;
14849;SDS011;7517;48.400;11.770;2024-03-07T12:45:49;16.00;;;11.00;;
14849;SDS011;7517;48.400;11.770;2024-03-07T12:48:19;15.23;;;11.30;;
14849;SDS011;7517;48.400;11.770;2024-03-07T12:50:49;14.23;;;10.63;;
14849;SDS011;7517;48.400;11.770;2024-03-07T12:53:19;16.30;;;10.90;;
14849;SDS011;7517;48.400;11.770;2024-03-07T12:55:47;13.50;;;10.40;;
14849;SDS011;7517;48.400;11.770;2024-03-07T12:58:17;15.17;;;10.67;;
14849;SDS011;7517;48.400;11.770;2024-03-07T13:00:48;14.73;;;10.57;;
14849;SDS011;7517;48.400;11.770;2024-03-07T13:03:15;16.47;;;11.33;;
14849;SDS011;7517;48.400;11.770;2024-03-07T13:05:43;13.87;;;10.73;;
14849;SDS011;7517;48.400;11.770;2024-03-07T13:08:13;15.20;;;10.63;;
14849;SDS011;7517;48.400;11.770;2024-03-07T13:10:41;15.83;;;10.87;;
14849;SDS011;7517;48.400;11.770;2024-03-07T13:13:09;14.20;;;10.20;;
14849;SDS011;7517;48.400;11.770;2024-03-07T13:15:38;15.93;;;11.80;;
14849;SDS011;7517;48.400;11.770;2024-03-07T13:18:08;14.50;;;10.77;;
14849;SDS011;7517;48.400;11.770;2024-03-07T13:20:35;12.90;;;10.47;;
14849;SDS011;7517;48.400;11.770;2024-03-07T13:23:03;14.20;;;10.67;;
14849;SDS011;7517;48.400;11.770;2024-03-07T13:25:32;14.70;;;10.50;;
14849;SDS011;7517;48.400;11.770;2024-03-07T13:28:01;15.67;;;10.80;;
14849;SDS011;7517;48.400;11.770;2024-03-07T13:30:33;12.07;;;9.90;;
14849;SDS011;7517;48.400;11.770;2024-03-07T13:33:02;12.87;;;9.97;;
14849;SDS011;7517;48.400;11.770;2024-03-07T13:35:30;14.23;;;10.43;;
14849;SDS011;7517;48.400;11.770;2024-03-07T13:37:58;13.93;;;10.20;;
14849;SDS011;7517;48.400;11.770;2024-03-07T13:40:26;11.97;;;9.23;;
14849;SDS011;7517;48.400;11.770;2024-03-07T13:42:57;13.10;;;9.63;;
14849;SDS011;7517;48.400;11.770;2024-03-07T13:45:26;14.47;;;9.53;;
14849;SDS011;7517;48.400;11.770;2024-03-07T13:47:56;13.70;;;10.33;;
14849;SDS011;7517;48.400;11.770;2024-03-07T13:50:26;14.57;;;10.67;;
14849;SDS011;7517;48.400;11.770;2024-03-07T13:52:55;12.77;;;10.13;;
14849;SDS011;7517;48.400;11.770;2024-03-07T13:59:00;11.83;;;9.00;;
14849;SDS011;7517;48.400;11.770;2024-03-07T14:02:03;10.87;;;8.37;;
14849;SDS011;7517;48.400;11.770;2024-03-07T14:05:05;11.13;;;8.20;;
14849;SDS011;7517;48.400;11.770;2024-03-07T14:08:13;11.83;;;8.47;;
14849;SDS011;7517;48.400;11.770;2024-03-07T14:11:18;9.87;;;8.37;;
14849;SDS011;7517;48.400;11.770;2024-03-07T14:21:35;10.80;;;8.63;;
14849;SDS011;7517;48.400;11.770;2024-03-07T14:30:55;8.83;;;7.60;;
14849;SDS011;7517;48.400;11.770;2024-03-07T14:33:27;7.80;;;7.00;;
14849;SDS011;7517;48.400;11.770;2024-03-07T14:36:10;12.53;;;8.90;;
14849;SDS011;7517;48.400;11.770;2024-03-07T14:38:46;8.53;;;7.03;;
14849;SDS011;7517;48.400;11.770;2024-03-07T14:41:19;9.70;;;7.73;;
14849;SDS011;7517;48.400;11.770;2024-03-07T14:44:07;9.47;;;7.90;;
14849;SDS011;7517;48.400;11.770;2024-03-07T14:46:35;9.93;;;7.60;;
14849;SDS011;7517;48.400;11.770;2024-03-07T14:49:03;9.00;;;7.87;;
14849;SDS011;7517;48.400;11.770;2024-03-07T14:51:32;9.93;;;8.43;;
14849;SDS011;7517;48.400;11.770;2024-03-07T14:53:59;9.67;;;7.43;;
14849;SDS011;7517;48.400;11.770;2024-03-07T14:56:28;8.50;;;7.27;;